createdAt,value
2022-12-09T00:01:42.197Z,5.47
2022-12-09T00:04:29.983Z,5.03
2022-12-09T00:07:17.974Z,5.20
2022-12-09T00:10:06.914Z,6.43
2022-12-09T00:12:56.431Z,6.40
2022-12-09T00:15:44.723Z,5.18
2022-12-09T00:18:45.362Z,4.75
2022-12-09T00:21:34.305Z,4.63
2022-12-09T00:24:21.959Z,4.95
2022-12-09T00:27:09.782Z,5.85
2022-12-09T00:29:57.504Z,6.00
2022-12-09T00:32:45.449Z,6.13
2022-12-09T00:35:33.914Z,5.45
2022-12-09T00:38:21.615Z,5.28
2022-12-09T00:41:10.064Z,4.85
2022-12-09T00:43:58.895Z,5.80
2022-12-09T00:46:46.825Z,6.88
2022-12-09T00:49:48.356Z,6.45
2022-12-09T00:52:36.410Z,5.90
2022-12-09T00:55:26.122Z,6.05
2022-12-09T00:58:14.959Z,4.35
2022-12-09T01:01:02.734Z,5.65
2022-12-09T01:03:51.649Z,6.30
2022-12-09T01:06:39.702Z,6.72
2022-12-09T01:09:27.419Z,6.97
2022-12-09T01:12:15.119Z,6.72
2022-12-09T01:15:03.729Z,6.97
2022-12-09T01:17:51.407Z,5.53
2022-12-09T01:20:39.426Z,5.97
2022-12-09T01:23:27.293Z,6.35
2022-12-09T01:26:15.452Z,6.85
2022-12-09T01:29:03.600Z,5.32
2022-12-09T01:31:51.641Z,5.38
2022-12-09T01:34:39.573Z,5.00
2022-12-09T01:37:27.623Z,6.00
2022-12-09T01:40:18.405Z,5.95
2022-12-09T01:43:19.811Z,5.90
2022-12-09T01:46:10.112Z,6.10
2022-12-09T01:48:58.572Z,5.20
2022-12-09T01:51:53.302Z,6.45
2022-12-09T01:54:43.335Z,4.65
2022-12-09T01:57:31.771Z,6.03
2022-12-09T02:00:21.034Z,6.85
2022-12-09T02:03:11.844Z,6.80
2022-12-09T02:06:02.034Z,5.75
2022-12-09T02:08:51.077Z,5.45
2022-12-09T02:12:02.226Z,6.80
2022-12-09T02:15:06.055Z,7.40
2022-12-09T02:18:00.310Z,10.70
2022-12-09T02:21:01.466Z,7.88
2022-12-09T02:23:59.376Z,6.70
2022-12-09T02:26:54.030Z,6.22
2022-12-09T02:30:06.752Z,6.75
2022-12-09T02:33:32.798Z,6.10
2022-12-09T02:36:25.991Z,5.22
2022-12-09T02:39:14.009Z,4.97
2022-12-09T02:42:08.956Z,4.40
2022-12-09T02:44:59.500Z,5.13
2022-12-09T02:47:51.222Z,5.50
2022-12-09T02:50:42.980Z,6.13
2022-12-09T02:56:21.800Z,3.42
2022-12-09T02:59:10.165Z,3.45
2022-12-09T03:02:22.724Z,5.47
2022-12-09T03:05:40.070Z,4.85
2022-12-09T03:08:53.213Z,4.80
2022-12-09T03:11:42.015Z,3.85
2022-12-09T03:14:36.146Z,4.70
2022-12-09T03:17:35.831Z,4.95
2022-12-09T03:20:29.147Z,3.70
2022-12-09T03:23:20.144Z,4.93
2022-12-09T03:26:08.382Z,4.15
2022-12-09T03:28:59.165Z,3.30
2022-12-09T03:31:48.064Z,6.22
2022-12-09T03:34:40.214Z,4.85
2022-12-09T03:37:28.705Z,4.07
2022-12-09T03:40:20.135Z,3.95
2022-12-09T03:43:12.807Z,14.07
2022-12-09T03:46:01.003Z,10.68
2022-12-09T03:48:49.547Z,11.10
2022-12-09T03:51:45.393Z,4.53
2022-12-09T03:54:44.669Z,4.53
2022-12-09T03:57:35.888Z,4.93
2022-12-09T04:00:23.959Z,3.58
2022-12-09T04:03:13.933Z,3.40
2022-12-09T04:06:01.795Z,5.43
2022-12-09T04:08:50.275Z,21.30
2022-12-09T04:11:38.093Z,8.68
2022-12-09T04:14:26.161Z,6.47
2022-12-09T04:17:14.083Z,6.90
2022-12-09T04:20:01.830Z,5.63
2022-12-09T04:22:49.465Z,4.70
2022-12-09T04:25:38.314Z,5.28
2022-12-09T04:28:26.143Z,4.50
2022-12-09T04:31:18.157Z,4.53
2022-12-09T04:34:09.605Z,10.05
2022-12-09T04:36:58.000Z,9.18
2022-12-09T04:39:45.752Z,3.85
2022-12-09T04:42:34.085Z,5.43
2022-12-09T04:45:22.856Z,6.25
2022-12-09T04:48:11.674Z,5.00
2022-12-09T04:51:00.021Z,4.45
2022-12-09T04:53:47.689Z,5.25
2022-12-09T04:56:35.415Z,4.38
2022-12-09T04:59:23.119Z,4.35
2022-12-09T05:02:11.194Z,5.68
2022-12-09T05:05:01.875Z,5.43
2022-12-09T05:07:50.111Z,7.55
2022-12-09T05:10:38.283Z,5.72
2022-12-09T05:13:30.450Z,5.82
2022-12-09T05:16:20.157Z,6.40
2022-12-09T05:19:08.663Z,5.85
2022-12-09T05:21:57.449Z,7.70
2022-12-09T05:24:47.527Z,4.53
2022-12-09T05:27:35.638Z,6.28
2022-12-09T05:30:23.466Z,5.25
2022-12-09T05:33:11.648Z,4.18
2022-12-09T05:35:59.576Z,4.97
2022-12-09T05:38:47.604Z,6.05
2022-12-09T05:41:36.033Z,6.57
2022-12-09T05:44:23.833Z,6.70
2022-12-09T05:47:12.120Z,3.58
2022-12-09T05:50:05.893Z,3.58
2022-12-09T05:52:55.639Z,4.80
2022-12-09T05:55:43.662Z,5.25
2022-12-09T05:58:31.976Z,4.75
2022-12-09T06:01:20.357Z,4.93
2022-12-09T06:04:09.170Z,4.05
2022-12-09T06:06:57.229Z,2.70
2022-12-09T06:09:45.885Z,3.65
2022-12-09T06:12:34.085Z,4.05
2022-12-09T06:15:24.795Z,3.63
2022-12-09T06:18:16.031Z,3.72
2022-12-09T06:21:08.673Z,4.00
2022-12-09T06:23:56.755Z,4.57
2022-12-09T06:26:44.905Z,5.45
2022-12-09T06:29:32.717Z,4.25
2022-12-09T06:32:20.477Z,5.07
2022-12-09T06:35:09.758Z,5.00
2022-12-09T06:37:58.144Z,6.68
2022-12-09T06:40:45.945Z,5.38
2022-12-09T06:43:33.989Z,3.17
2022-12-09T06:46:23.833Z,5.60
2022-12-09T06:49:11.867Z,6.13
2022-12-09T06:51:59.972Z,5.78
2022-12-09T06:54:48.115Z,4.80
2022-12-09T06:57:35.865Z,7.72
2022-12-09T07:00:24.486Z,7.68
2022-12-09T07:03:13.719Z,8.73
2022-12-09T07:06:03.574Z,6.85
2022-12-09T07:08:51.800Z,6.05
2022-12-09T07:11:42.750Z,5.28
2022-12-09T07:14:31.344Z,4.93
2022-12-09T07:17:20.855Z,5.03
2022-12-09T07:20:09.399Z,3.28
2022-12-09T07:22:57.501Z,5.22
2022-12-09T07:25:45.390Z,3.45
2022-12-09T07:28:37.128Z,5.78
2022-12-09T07:31:27.584Z,4.50
2022-12-09T07:34:16.013Z,4.95
2022-12-09T07:37:04.065Z,6.30
2022-12-09T07:39:52.027Z,4.28
2022-12-09T07:42:39.790Z,4.10
2022-12-09T07:45:30.092Z,7.05
2022-12-09T07:48:18.000Z,6.28
2022-12-09T07:51:06.159Z,6.85
2022-12-09T07:53:54.142Z,6.47
2022-12-09T07:56:43.571Z,8.50
2022-12-09T07:59:31.328Z,8.98
2022-12-09T08:02:20.208Z,8.20
2022-12-09T08:05:13.380Z,8.30
2022-12-09T08:08:06.451Z,7.90
2022-12-09T08:11:07.522Z,9.73
2022-12-09T08:14:05.672Z,6.38
2022-12-09T08:16:57.165Z,5.05
2022-12-09T08:19:45.122Z,5.40
2022-12-09T08:22:34.987Z,4.93
2022-12-09T08:25:24.414Z,5.22
2022-12-09T08:28:12.364Z,5.40
2022-12-09T08:31:16.915Z,5.47
2022-12-09T08:34:05.717Z,5.85
2022-12-09T08:37:00.260Z,6.30
2022-12-09T08:39:49.649Z,5.93
2022-12-09T08:42:38.582Z,6.10
2022-12-09T08:45:26.828Z,5.75
2022-12-09T08:48:15.063Z,5.13
2022-12-09T08:51:03.181Z,4.70
2022-12-09T08:53:51.181Z,4.90
2022-12-09T08:56:38.855Z,5.28
2022-12-09T08:59:26.980Z,7.20
2022-12-09T09:02:14.692Z,6.45
2022-12-09T09:05:02.927Z,6.90
2022-12-09T09:07:51.311Z,6.57
2022-12-09T09:10:39.820Z,4.65
2022-12-09T09:13:27.899Z,5.90
2022-12-09T09:16:21.766Z,5.35
2022-12-09T09:19:17.467Z,4.90
2022-12-09T09:22:05.524Z,4.65
2022-12-09T09:24:54.382Z,4.35
2022-12-09T09:27:42.119Z,4.38
2022-12-09T09:30:29.904Z,4.30
2022-12-09T09:33:17.977Z,3.42
2022-12-09T09:36:10.662Z,4.38
2022-12-09T09:39:00.243Z,4.90
2022-12-09T09:42:08.922Z,4.97
2022-12-09T09:44:58.291Z,5.25
2022-12-09T09:47:51.982Z,5.18
2022-12-09T09:51:29.272Z,6.18
2022-12-09T09:54:17.414Z,6.43
2022-12-09T09:57:30.030Z,4.30
2022-12-09T10:03:25.375Z,4.75
2022-12-09T10:06:33.454Z,5.60
2022-12-09T10:09:40.559Z,5.57
2022-12-09T10:12:49.686Z,6.13
2022-12-09T10:15:55.181Z,5.72
2022-12-09T10:18:51.673Z,4.68
2022-12-09T10:21:44.431Z,7.38
2022-12-09T10:24:39.261Z,7.05
2022-12-09T10:27:31.385Z,7.78
2022-12-09T10:30:20.750Z,7.25
2022-12-09T10:33:16.694Z,7.47
2022-12-09T10:36:06.349Z,7.22
2022-12-09T10:38:54.131Z,6.70
2022-12-09T10:42:06.553Z,13.02
2022-12-09T10:45:07.893Z,8.05
2022-12-09T10:47:56.048Z,6.97
2022-12-09T10:50:48.418Z,6.28
2022-12-09T10:53:37.016Z,6.57
2022-12-09T10:56:36.739Z,6.03
2022-12-09T10:59:27.255Z,7.78
2022-12-09T11:02:21.137Z,7.15
2022-12-09T11:05:30.182Z,7.10
2022-12-09T11:08:23.216Z,5.00
2022-12-09T11:11:11.195Z,5.05
2022-12-09T11:14:01.604Z,4.80
2022-12-09T11:16:52.042Z,8.10
2022-12-09T11:19:40.854Z,4.40
2022-12-09T11:22:42.414Z,6.05
2022-12-09T11:25:36.884Z,4.83
2022-12-09T11:28:31.038Z,5.13
2022-12-09T11:31:31.890Z,6.68
2022-12-09T11:34:25.054Z,7.50
2022-12-09T11:37:13.005Z,5.22
2022-12-09T11:40:00.676Z,4.70
2022-12-09T11:42:54.068Z,5.40
2022-12-09T11:45:46.306Z,5.68
2022-12-09T11:48:41.702Z,8.38
2022-12-09T11:51:38.159Z,4.70
2022-12-09T11:54:32.301Z,17.30
2022-12-09T11:57:35.773Z,17.77
2022-12-09T12:00:34.100Z,7.40
2022-12-09T12:03:24.845Z,4.43
2022-12-09T12:06:24.327Z,5.75
2022-12-09T12:09:17.648Z,6.45
2022-12-09T12:12:10.204Z,5.53
2022-12-09T12:15:02.302Z,5.07
2022-12-09T12:17:55.026Z,4.75
2022-12-09T12:20:54.722Z,5.85
2022-12-09T12:24:00.692Z,4.63
2022-12-09T12:26:51.165Z,4.97
2022-12-09T12:29:59.426Z,5.07
2022-12-09T12:36:33.395Z,5.95
2022-12-09T12:39:53.059Z,7.38
2022-12-09T12:43:36.041Z,5.60
2022-12-09T12:46:57.017Z,4.65
2022-12-09T12:49:58.613Z,5.50
2022-12-09T12:52:56.353Z,6.82
2022-12-09T12:56:02.446Z,7.70
2022-12-09T12:59:26.906Z,7.93
2022-12-09T13:02:36.760Z,8.88
2022-12-09T13:05:28.016Z,9.07
2022-12-09T13:08:30.655Z,8.80
2022-12-09T13:11:23.915Z,7.93
2022-12-09T13:14:17.781Z,7.80
2022-12-09T13:17:13.118Z,8.13
2022-12-09T13:20:03.109Z,7.25
2022-12-09T13:23:00.679Z,6.97
2022-12-09T13:26:06.619Z,7.65
2022-12-09T13:29:05.963Z,7.22
2022-12-09T13:32:05.509Z,8.65
2022-12-09T13:35:01.146Z,9.82
2022-12-09T13:37:50.366Z,8.57
2022-12-09T13:40:39.269Z,8.23
2022-12-09T13:43:29.505Z,8.30
2022-12-09T13:46:25.473Z,8.57
2022-12-09T13:49:24.893Z,7.90
2022-12-09T13:52:12.482Z,8.90
2022-12-09T13:55:00.186Z,10.38
2022-12-09T13:57:58.747Z,9.70
2022-12-09T14:01:07.705Z,7.95
2022-12-09T14:04:16.471Z,8.35
2022-12-09T14:07:36.644Z,8.98
2022-12-09T14:10:39.432Z,7.68
2022-12-09T14:13:37.427Z,8.57
2022-12-09T14:16:28.140Z,15.48
2022-12-09T14:19:24.852Z,13.27
2022-12-09T14:22:19.426Z,9.02
2022-12-09T14:25:29.543Z,11.27
2022-12-09T14:28:41.875Z,10.32
2022-12-09T14:31:50.676Z,10.65
2022-12-09T14:34:43.292Z,9.25
2022-12-09T14:37:58.267Z,8.50
2022-12-09T14:41:12.881Z,9.43
2022-12-09T14:44:09.431Z,8.20
2022-12-09T14:47:31.308Z,6.18
2022-12-09T14:50:25.159Z,7.67
2022-12-09T14:53:25.219Z,8.57
2022-12-09T14:56:21.308Z,11.02
2022-12-09T14:59:16.673Z,11.30
2022-12-09T15:02:20.939Z,13.00
2022-12-09T15:05:17.089Z,15.30
2022-12-09T15:08:05.647Z,12.35
2022-12-09T15:10:53.434Z,16.50
2022-12-09T15:13:52.959Z,19.08
2022-12-09T15:16:46.401Z,22.38
2022-12-09T15:19:59.741Z,15.38
2022-12-09T15:22:52.834Z,14.02
2022-12-09T15:25:50.929Z,15.68
2022-12-09T15:28:38.601Z,14.70
2022-12-09T15:31:29.114Z,13.57
2022-12-09T15:34:26.124Z,13.07
2022-12-09T15:37:18.882Z,10.77
2022-12-09T15:40:13.025Z,10.48
2022-12-09T15:43:13.325Z,13.82
2022-12-09T15:46:07.690Z,17.58
2022-12-09T15:48:58.276Z,14.02
2022-12-09T15:51:48.189Z,12.25
2022-12-09T15:54:40.370Z,14.50
2022-12-09T15:57:28.533Z,14.27
2022-12-09T16:00:16.534Z,12.57
2022-12-09T16:03:05.780Z,9.63
2022-12-09T16:05:56.885Z,9.85
2022-12-09T16:08:45.283Z,10.95
2022-12-09T16:11:43.978Z,14.70
2022-12-09T16:14:43.377Z,14.65
2022-12-09T16:17:35.398Z,14.05
2022-12-09T16:20:33.128Z,28.50
2022-12-09T16:23:24.248Z,19.17
2022-12-09T16:26:21.479Z,14.82
2022-12-09T16:29:23.704Z,15.43
2022-12-09T16:32:22.815Z,11.50
2022-12-09T16:35:32.081Z,14.82
2022-12-09T16:38:19.991Z,12.00
2022-12-09T16:41:12.364Z,11.73
2022-12-09T16:46:47.881Z,16.33
2022-12-09T16:49:35.540Z,12.48
2022-12-09T16:52:25.896Z,15.73
2022-12-09T16:55:25.541Z,13.38
2022-12-09T16:58:15.036Z,16.27
2022-12-09T17:01:05.191Z,13.82
2022-12-09T17:03:58.479Z,12.60
2022-12-09T17:06:46.392Z,15.25
2022-12-09T17:09:37.143Z,16.67
2022-12-09T17:12:24.788Z,10.73
2022-12-09T17:15:19.502Z,14.85
2022-12-09T17:18:07.917Z,12.70
2022-12-09T17:21:08.985Z,14.75
2022-12-09T17:23:57.680Z,12.55
2022-12-09T17:26:45.353Z,9.65
2022-12-09T17:29:33.063Z,10.63
2022-12-09T17:32:20.849Z,10.75
2022-12-09T17:35:12.915Z,10.35
2022-12-09T17:38:03.523Z,10.60
2022-12-09T17:40:51.631Z,8.48
2022-12-09T17:43:39.472Z,12.52
2022-12-09T17:46:27.622Z,10.63
2022-12-09T17:49:18.495Z,15.02
2022-12-09T17:52:06.441Z,11.63
2022-12-09T17:54:54.040Z,10.40
2022-12-09T17:57:41.638Z,11.43
2022-12-09T18:00:29.318Z,13.27
2022-12-09T18:03:27.361Z,14.80
2022-12-09T18:06:25.942Z,15.43
2022-12-09T18:09:18.685Z,12.23
2022-12-09T18:12:09.422Z,15.65
2022-12-09T18:15:00.047Z,16.52
2022-12-09T18:17:53.633Z,14.38
2022-12-09T18:20:44.147Z,11.30
2022-12-09T18:23:35.539Z,18.88
2022-12-09T18:26:30.207Z,18.30
2022-12-09T18:29:20.117Z,16.95
2022-12-09T18:32:08.482Z,13.57
2022-12-09T18:34:56.180Z,15.43
2022-12-09T18:37:43.852Z,14.93
2022-12-09T18:40:31.659Z,16.80
2022-12-09T18:43:19.260Z,14.70
2022-12-09T18:46:25.018Z,11.68
2022-12-09T18:49:21.990Z,15.18
2022-12-09T18:52:09.708Z,12.75
2022-12-09T18:54:57.309Z,15.73
2022-12-09T18:57:45.084Z,17.08
2022-12-09T19:00:32.799Z,10.88
2022-12-09T19:03:20.453Z,13.75
2022-12-09T19:06:23.092Z,8.90
2022-12-09T19:09:15.346Z,9.43
2022-12-09T19:12:45.247Z,14.68
2022-12-09T19:15:17.302Z,12.38
2022-12-09T19:18:04.871Z,11.43
2022-12-09T19:20:55.767Z,13.23
2022-12-09T19:23:45.489Z,12.05
2022-12-09T19:26:35.463Z,14.60
2022-12-09T19:29:24.885Z,16.92
2022-12-09T19:32:36.501Z,15.35
2022-12-09T19:35:20.152Z,12.90
2022-12-09T19:38:07.891Z,10.85
2022-12-09T19:41:00.260Z,9.93
2022-12-09T19:46:35.883Z,7.78
2022-12-09T19:49:24.159Z,9.07
2022-12-09T19:52:12.539Z,14.32
2022-12-09T19:55:00.622Z,9.98
2022-12-09T19:57:48.300Z,7.47
2022-12-09T20:00:41.419Z,8.07
2022-12-09T20:03:29.389Z,12.98
2022-12-09T20:06:20.418Z,8.95
2022-12-09T20:09:10.392Z,7.63
2022-12-09T20:12:00.213Z,8.15
2022-12-09T20:14:50.462Z,7.93
2022-12-09T20:17:39.118Z,8.60
2022-12-09T20:20:34.462Z,8.18
2022-12-09T20:23:22.126Z,6.50
2022-12-09T20:26:27.606Z,7.28
2022-12-09T20:29:15.346Z,6.57
2022-12-09T20:32:03.130Z,6.18
2022-12-09T20:34:51.602Z,4.75
2022-12-09T20:37:39.597Z,5.22
2022-12-09T20:40:27.283Z,7.07
2022-12-09T20:43:15.075Z,5.65
2022-12-09T20:46:05.487Z,6.57
2022-12-09T20:48:53.928Z,8.77
2022-12-09T20:51:42.021Z,8.02
2022-12-09T20:54:29.774Z,5.38
2022-12-09T20:57:17.907Z,4.63
2022-12-09T21:00:06.245Z,5.55
2022-12-09T21:02:54.163Z,5.13
2022-12-09T21:05:42.037Z,4.72
2022-12-09T21:08:31.981Z,5.70
2022-12-09T21:11:23.397Z,4.47
2022-12-09T21:14:12.211Z,4.55
2022-12-09T21:16:59.831Z,4.60
2022-12-09T21:19:47.771Z,5.68
2022-12-09T21:22:35.632Z,4.65
2022-12-09T21:25:23.404Z,5.15
2022-12-09T21:28:11.211Z,5.65
2022-12-09T21:30:58.853Z,4.88
2022-12-09T21:33:48.395Z,4.95
2022-12-09T21:36:39.610Z,5.25
2022-12-09T21:39:28.225Z,6.53
2022-12-09T21:42:16.048Z,5.55
2022-12-09T21:45:04.771Z,4.93
2022-12-09T21:47:52.466Z,5.32
2022-12-09T21:50:40.104Z,5.13
2022-12-09T21:53:28.696Z,4.85
2022-12-09T21:56:21.830Z,4.95
2022-12-09T21:59:10.734Z,5.22
2022-12-09T22:14:28.350Z,5.80
2022-12-09T22:17:15.940Z,5.20
2022-12-09T22:20:49.060Z,6.15
2022-12-09T22:23:13.724Z,5.65
2022-12-09T22:26:05.850Z,5.05
2022-12-09T22:28:54.077Z,7.30
2022-12-09T22:31:45.279Z,6.63
2022-12-09T22:34:33.125Z,5.90
2022-12-09T22:37:43.009Z,5.93
2022-12-09T22:40:28.357Z,6.30
2022-12-09T22:43:16.032Z,5.70
2022-12-09T22:46:09.276Z,6.82
2022-12-09T22:49:00.064Z,6.03
2022-12-09T22:51:48.130Z,6.63
2022-12-09T22:54:35.802Z,5.22
2022-12-09T22:57:23.383Z,4.70
2022-12-09T23:00:11.911Z,5.10
2022-12-09T23:02:59.623Z,5.25
2022-12-09T23:05:47.698Z,5.07
2022-12-09T23:08:36.655Z,5.03
2022-12-09T23:11:27.749Z,5.00
2022-12-09T23:14:16.282Z,5.38
2022-12-09T23:17:03.934Z,6.07
2022-12-09T23:19:51.589Z,5.78
2022-12-09T23:22:39.239Z,7.07
2022-12-09T23:25:26.861Z,6.35
2022-12-09T23:28:14.497Z,7.03
2022-12-09T23:31:03.132Z,7.00
2022-12-09T23:33:52.516Z,8.45
2022-12-09T23:36:42.377Z,7.43
2022-12-09T23:39:30.042Z,5.90
2022-12-09T23:42:19.768Z,4.95
2022-12-09T23:45:08.006Z,5.00
2022-12-09T23:47:56.694Z,5.22
2022-12-09T23:50:44.387Z,5.72
2022-12-09T23:53:31.991Z,4.50
2022-12-09T23:56:22.044Z,5.35
2022-12-09T23:59:12.473Z,5.55
